sensor_id;sensor_type;location;lat;lon;timestamp;P1;durP1;ratioP1;P2;durP2;ratioP2
32918;SDS011;19280;42.646;21.150;2023-01-25T00:00:18;11.93;;;7.18;;
32918;SDS011;19280;42.646;21.150;2023-01-25T00:02:44;12.52;;;7.35;;
32918;SDS011;19280;42.646;21.150;2023-01-25T00:05:10;14.18;;;7.50;;
32918;SDS011;19280;42.646;21.150;2023-01-25T00:07:36;14.65;;;8.45;;
32918;SDS011;19280;42.646;21.150;2023-01-25T00:10:02;13.48;;;8.55;;
32918;SDS011;19280;42.646;21.150;2023-01-25T00:12:28;13.25;;;8.02;;
32918;SDS011;19280;42.646;21.150;2023-01-25T00:14:54;12.75;;;7.88;;
32918;SDS011;19280;42.646;21.150;2023-01-25T00:17:20;15.93;;;8.95;;
32918;SDS011;19280;42.646;21.150;2023-01-25T00:19:46;12.70;;;8.35;;
32918;SDS011;19280;42.646;21.150;2023-01-25T00:22:12;14.85;;;8.73;;
32918;SDS011;19280;42.646;21.150;2023-01-25T00:24:38;13.43;;;8.50;;
32918;SDS011;19280;42.646;21.150;2023-01-25T00:27:04;15.85;;;9.18;;
32918;SDS011;19280;42.646;21.150;2023-01-25T00:29:30;16.05;;;9.18;;
32918;SDS011;19280;42.646;21.150;2023-01-25T00:31:57;13.48;;;9.02;;
32918;SDS011;19280;42.646;21.150;2023-01-25T00:39:21;18.17;;;9.38;;
32918;SDS011;19280;42.646;21.150;2023-01-25T00:41:48;13.63;;;7.97;;
32918;SDS011;19280;42.646;21.150;2023-01-25T00:44:14;15.30;;;8.60;;
32918;SDS011;19280;42.646;21.150;2023-01-25T00:46:40;16.88;;;8.32;;
32918;SDS011;19280;42.646;21.150;2023-01-25T00:49:06;14.73;;;8.15;;
32918;SDS011;19280;42.646;21.150;2023-01-25T00:51:40;13.32;;;7.57;;
32918;SDS011;19280;42.646;21.150;2023-01-25T00:54:06;12.88;;;7.95;;
32918;SDS011;19280;42.646;21.150;2023-01-25T00:56:32;15.77;;;8.60;;
32918;SDS011;19280;42.646;21.150;2023-01-25T00:58:58;18.58;;;8.38;;
32918;SDS011;19280;42.646;21.150;2023-01-25T01:01:24;17.27;;;9.05;;
32918;SDS011;19280;42.646;21.150;2023-01-25T01:03:50;14.57;;;7.82;;
32918;SDS011;19280;42.646;21.150;2023-01-25T01:06:17;14.30;;;8.35;;
32918;SDS011;19280;42.646;21.150;2023-01-25T01:08:43;13.57;;;7.75;;
32918;SDS011;19280;42.646;21.150;2023-01-25T01:11:10;14.27;;;8.32;;
32918;SDS011;19280;42.646;21.150;2023-01-25T01:13:37;14.23;;;8.23;;
32918;SDS011;19280;42.646;21.150;2023-01-25T01:16:04;14.90;;;8.52;;
32918;SDS011;19280;42.646;21.150;2023-01-25T01:18:35;14.65;;;8.98;;
32918;SDS011;19280;42.646;21.150;2023-01-25T01:21:01;14.20;;;8.80;;
32918;SDS011;19280;42.646;21.150;2023-01-25T01:23:27;14.70;;;8.82;;
32918;SDS011;19280;42.646;21.150;2023-01-25T01:25:54;15.48;;;9.10;;
32918;SDS011;19280;42.646;21.150;2023-01-25T01:28:20;14.65;;;8.30;;
32918;SDS011;19280;42.646;21.150;2023-01-25T01:30:46;13.88;;;8.10;;
32918;SDS011;19280;42.646;21.150;2023-01-25T01:33:12;13.77;;;8.57;;
32918;SDS011;19280;42.646;21.150;2023-01-25T01:35:38;13.07;;;7.95;;
32918;SDS011;19280;42.646;21.150;2023-01-25T01:38:04;14.80;;;8.70;;
32918;SDS011;19280;42.646;21.150;2023-01-25T01:40:30;15.27;;;8.18;;
32918;SDS011;19280;42.646;21.150;2023-01-25T01:43:00;13.73;;;8.15;;
32918;SDS011;19280;42.646;21.150;2023-01-25T01:50:40;16.20;;;8.68;;
32918;SDS011;19280;42.646;21.150;2023-01-25T01:53:06;11.77;;;7.80;;
32918;SDS011;19280;42.646;21.150;2023-01-25T01:55:33;13.68;;;8.25;;
32918;SDS011;19280;42.646;21.150;2023-01-25T01:58:00;11.02;;;6.88;;
32918;SDS011;19280;42.646;21.150;2023-01-25T02:00:34;13.85;;;8.00;;
32918;SDS011;19280;42.646;21.150;2023-01-25T02:03:01;12.45;;;8.25;;
32918;SDS011;19280;42.646;21.150;2023-01-25T02:05:31;11.93;;;7.70;;
32918;SDS011;19280;42.646;21.150;2023-01-25T02:08:04;14.10;;;8.35;;
32918;SDS011;19280;42.646;21.150;2023-01-25T02:10:32;12.23;;;7.93;;
32918;SDS011;19280;42.646;21.150;2023-01-25T02:12:59;10.93;;;6.90;;
32918;SDS011;19280;42.646;21.150;2023-01-25T02:15:26;19.00;;;9.85;;
32918;SDS011;19280;42.646;21.150;2023-01-25T02:17:53;14.13;;;8.13;;
32918;SDS011;19280;42.646;21.150;2023-01-25T02:25:12;12.73;;;7.68;;
32918;SDS011;19280;42.646;21.150;2023-01-25T02:27:40;18.10;;;8.52;;
32918;SDS011;19280;42.646;21.150;2023-01-25T02:30:07;15.25;;;8.82;;
32918;SDS011;19280;42.646;21.150;2023-01-25T02:32:33;15.38;;;7.65;;
32918;SDS011;19280;42.646;21.150;2023-01-25T02:34:59;10.98;;;5.70;;
32918;SDS011;19280;42.646;21.150;2023-01-25T02:37:26;10.02;;;6.65;;
32918;SDS011;19280;42.646;21.150;2023-01-25T02:39:52;8.75;;;5.68;;
32918;SDS011;19280;42.646;21.150;2023-01-25T02:42:18;7.95;;;5.60;;
32918;SDS011;19280;42.646;21.150;2023-01-25T02:44:44;9.45;;;5.70;;
32918;SDS011;19280;42.646;21.150;2023-01-25T02:47:10;9.27;;;4.88;;
32918;SDS011;19280;42.646;21.150;2023-01-25T02:49:36;9.68;;;5.78;;
32918;SDS011;19280;42.646;21.150;2023-01-25T02:52:03;8.95;;;5.40;;
32918;SDS011;19280;42.646;21.150;2023-01-25T02:54:30;8.13;;;5.53;;
32918;SDS011;19280;42.646;21.150;2023-01-25T02:56:56;7.85;;;5.13;;
32918;SDS011;19280;42.646;21.150;2023-01-25T02:59:22;7.07;;;4.75;;
32918;SDS011;19280;42.646;21.150;2023-01-25T03:01:48;5.65;;;3.92;;
32918;SDS011;19280;42.646;21.150;2023-01-25T03:04:15;5.97;;;3.92;;
32918;SDS011;19280;42.646;21.150;2023-01-25T03:06:41;6.50;;;4.38;;
32918;SDS011;19280;42.646;21.150;2023-01-25T03:09:08;6.75;;;4.28;;
32918;SDS011;19280;42.646;21.150;2023-01-25T03:11:47;6.07;;;4.03;;
32918;SDS011;19280;42.646;21.150;2023-01-25T03:14:13;5.28;;;3.53;;
32918;SDS011;19280;42.646;21.150;2023-01-25T03:16:39;5.10;;;3.35;;
32918;SDS011;19280;42.646;21.150;2023-01-25T03:19:05;6.70;;;4.10;;
32918;SDS011;19280;42.646;21.150;2023-01-25T03:21:31;6.65;;;4.05;;
32918;SDS011;19280;42.646;21.150;2023-01-25T03:23:58;5.68;;;3.95;;
32918;SDS011;19280;42.646;21.150;2023-01-25T03:26:27;7.20;;;4.32;;
32918;SDS011;19280;42.646;21.150;2023-01-25T03:28:53;6.68;;;4.28;;
32918;SDS011;19280;42.646;21.150;2023-01-25T03:31:19;7.28;;;4.68;;
32918;SDS011;19280;42.646;21.150;2023-01-25T03:33:45;6.53;;;4.15;;
32918;SDS011;19280;42.646;21.150;2023-01-25T03:36:11;9.45;;;4.50;;
32918;SDS011;19280;42.646;21.150;2023-01-25T03:38:37;8.32;;;4.93;;
32918;SDS011;19280;42.646;21.150;2023-01-25T03:41:03;7.75;;;4.95;;
32918;SDS011;19280;42.646;21.150;2023-01-25T03:43:29;6.57;;;4.47;;
32918;SDS011;19280;42.646;21.150;2023-01-25T03:45:59;7.15;;;4.35;;
32918;SDS011;19280;42.646;21.150;2023-01-25T03:48:26;8.40;;;4.72;;
32918;SDS011;19280;42.646;21.150;2023-01-25T03:50:53;5.95;;;4.10;;
32918;SDS011;19280;42.646;21.150;2023-01-25T03:53:20;6.15;;;4.22;;
32918;SDS011;19280;42.646;21.150;2023-01-25T03:56:03;7.03;;;4.40;;
32918;SDS011;19280;42.646;21.150;2023-01-25T03:58:32;8.82;;;4.68;;
32918;SDS011;19280;42.646;21.150;2023-01-25T04:00:59;7.03;;;4.80;;
32918;SDS011;19280;42.646;21.150;2023-01-25T04:03:25;7.28;;;5.00;;
32918;SDS011;19280;42.646;21.150;2023-01-25T04:05:52;7.38;;;4.57;;
32918;SDS011;19280;42.646;21.150;2023-01-25T04:08:18;9.38;;;4.70;;
32918;SDS011;19280;42.646;21.150;2023-01-25T04:10:48;8.05;;;5.18;;
32918;SDS011;19280;42.646;21.150;2023-01-25T04:13:16;7.28;;;4.63;;
32918;SDS011;19280;42.646;21.150;2023-01-25T04:15:42;8.40;;;5.03;;
32918;SDS011;19280;42.646;21.150;2023-01-25T04:18:08;8.32;;;4.90;;
32918;SDS011;19280;42.646;21.150;2023-01-25T04:20:34;8.75;;;4.88;;
32918;SDS011;19280;42.646;21.150;2023-01-25T04:23:00;6.80;;;4.63;;
32918;SDS011;19280;42.646;21.150;2023-01-25T04:25:26;8.63;;;5.05;;
32918;SDS011;19280;42.646;21.150;2023-01-25T04:27:52;8.10;;;4.78;;
32918;SDS011;19280;42.646;21.150;2023-01-25T04:30:18;6.43;;;4.40;;
32918;SDS011;19280;42.646;21.150;2023-01-25T04:32:45;8.00;;;4.90;;
32918;SDS011;19280;42.646;21.150;2023-01-25T04:35:11;7.13;;;5.00;;
32918;SDS011;19280;42.646;21.150;2023-01-25T04:37:37;7.25;;;4.70;;
32918;SDS011;19280;42.646;21.150;2023-01-25T04:40:03;6.88;;;4.75;;
32918;SDS011;19280;42.646;21.150;2023-01-25T04:42:29;8.27;;;4.93;;
32918;SDS011;19280;42.646;21.150;2023-01-25T04:44:55;8.50;;;5.53;;
32918;SDS011;19280;42.646;21.150;2023-01-25T04:47:21;8.65;;;4.57;;
32918;SDS011;19280;42.646;21.150;2023-01-25T04:49:47;9.32;;;5.90;;
32918;SDS011;19280;42.646;21.150;2023-01-25T04:52:13;8.60;;;4.90;;
32918;SDS011;19280;42.646;21.150;2023-01-25T04:54:39;7.40;;;4.70;;
32918;SDS011;19280;42.646;21.150;2023-01-25T04:57:11;9.35;;;5.40;;
32918;SDS011;19280;42.646;21.150;2023-01-25T04:59:37;11.25;;;5.18;;
32918;SDS011;19280;42.646;21.150;2023-01-25T05:02:03;9.77;;;5.40;;
32918;SDS011;19280;42.646;21.150;2023-01-25T05:04:29;8.15;;;4.70;;
32918;SDS011;19280;42.646;21.150;2023-01-25T05:06:55;9.80;;;5.60;;
32918;SDS011;19280;42.646;21.150;2023-01-25T05:09:21;8.35;;;5.18;;
32918;SDS011;19280;42.646;21.150;2023-01-25T05:11:47;7.95;;;5.57;;
32918;SDS011;19280;42.646;21.150;2023-01-25T05:14:13;11.07;;;5.90;;
32918;SDS011;19280;42.646;21.150;2023-01-25T05:16:39;9.48;;;5.97;;
32918;SDS011;19280;42.646;21.150;2023-01-25T05:19:07;9.80;;;6.50;;
32918;SDS011;19280;42.646;21.150;2023-01-25T05:21:33;9.25;;;6.05;;
32918;SDS011;19280;42.646;21.150;2023-01-25T05:24:18;10.82;;;6.45;;
32918;SDS011;19280;42.646;21.150;2023-01-25T05:26:44;10.05;;;5.85;;
32918;SDS011;19280;42.646;21.150;2023-01-25T05:29:26;10.85;;;6.70;;
32918;SDS011;19280;42.646;21.150;2023-01-25T05:31:52;11.10;;;6.53;;
32918;SDS011;19280;42.646;21.150;2023-01-25T05:34:19;10.63;;;6.78;;
32918;SDS011;19280;42.646;21.150;2023-01-25T05:36:45;10.15;;;6.32;;
32918;SDS011;19280;42.646;21.150;2023-01-25T05:39:11;11.70;;;7.10;;
32918;SDS011;19280;42.646;21.150;2023-01-25T05:41:37;10.25;;;6.00;;
32918;SDS011;19280;42.646;21.150;2023-01-25T05:44:03;13.55;;;6.68;;
32918;SDS011;19280;42.646;21.150;2023-01-25T05:46:29;9.60;;;5.88;;
32918;SDS011;19280;42.646;21.150;2023-01-25T05:48:55;12.50;;;7.00;;
32918;SDS011;19280;42.646;21.150;2023-01-25T05:51:21;12.48;;;7.40;;
32918;SDS011;19280;42.646;21.150;2023-01-25T05:53:47;11.10;;;6.80;;
32918;SDS011;19280;42.646;21.150;2023-01-25T05:56:13;12.88;;;7.97;;
32918;SDS011;19280;42.646;21.150;2023-01-25T05:58:39;14.77;;;8.27;;
32918;SDS011;19280;42.646;21.150;2023-01-25T06:01:06;18.20;;;9.70;;
32918;SDS011;19280;42.646;21.150;2023-01-25T06:03:32;15.82;;;9.05;;
32918;SDS011;19280;42.646;21.150;2023-01-25T06:06:00;13.75;;;8.05;;
32918;SDS011;19280;42.646;21.150;2023-01-25T06:08:29;14.35;;;8.23;;
32918;SDS011;19280;42.646;21.150;2023-01-25T06:10:56;15.77;;;8.35;;
32918;SDS011;19280;42.646;21.150;2023-01-25T06:13:22;14.35;;;8.43;;
32918;SDS011;19280;42.646;21.150;2023-01-25T06:15:55;18.98;;;8.73;;
32918;SDS011;19280;42.646;21.150;2023-01-25T06:18:22;15.63;;;9.13;;
32918;SDS011;19280;42.646;21.150;2023-01-25T06:20:51;18.25;;;8.90;;
32918;SDS011;19280;42.646;21.150;2023-01-25T06:23:17;16.05;;;9.38;;
32918;SDS011;19280;42.646;21.150;2023-01-25T06:25:43;16.27;;;9.95;;
32918;SDS011;19280;42.646;21.150;2023-01-25T06:28:09;17.35;;;10.60;;
32918;SDS011;19280;42.646;21.150;2023-01-25T06:30:35;19.38;;;10.73;;
32918;SDS011;19280;42.646;21.150;2023-01-25T06:33:01;21.27;;;12.10;;
32918;SDS011;19280;42.646;21.150;2023-01-25T06:35:27;26.45;;;11.82;;
32918;SDS011;19280;42.646;21.150;2023-01-25T06:37:55;21.45;;;12.05;;
32918;SDS011;19280;42.646;21.150;2023-01-25T06:40:22;26.42;;;11.77;;
32918;SDS011;19280;42.646;21.150;2023-01-25T06:42:48;23.63;;;11.70;;
32918;SDS011;19280;42.646;21.150;2023-01-25T06:45:14;20.40;;;10.43;;
32918;SDS011;19280;42.646;21.150;2023-01-25T06:47:40;17.30;;;9.05;;
32918;SDS011;19280;42.646;21.150;2023-01-25T06:50:07;18.25;;;8.48;;
32918;SDS011;19280;42.646;21.150;2023-01-25T06:52:33;22.92;;;9.65;;
32918;SDS011;19280;42.646;21.150;2023-01-25T06:55:03;21.85;;;11.30;;
32918;SDS011;19280;42.646;21.150;2023-01-25T06:57:31;28.90;;;11.05;;
32918;SDS011;19280;42.646;21.150;2023-01-25T06:59:57;30.90;;;11.50;;
32918;SDS011;19280;42.646;21.150;2023-01-25T07:02:23;19.67;;;10.60;;
32918;SDS011;19280;42.646;21.150;2023-01-25T07:04:49;31.02;;;10.63;;
32918;SDS011;19280;42.646;21.150;2023-01-25T07:07:15;21.02;;;9.10;;
32918;SDS011;19280;42.646;21.150;2023-01-25T07:09:41;23.02;;;9.07;;
32918;SDS011;19280;42.646;21.150;2023-01-25T07:12:07;26.65;;;7.88;;
32918;SDS011;19280;42.646;21.150;2023-01-25T07:14:33;16.60;;;8.05;;
32918;SDS011;19280;42.646;21.150;2023-01-25T07:16:59;14.60;;;7.90;;
32918;SDS011;19280;42.646;21.150;2023-01-25T07:19:25;22.30;;;8.05;;
32918;SDS011;19280;42.646;21.150;2023-01-25T07:21:51;16.98;;;8.25;;
32918;SDS011;19280;42.646;21.150;2023-01-25T07:24:18;17.25;;;8.90;;
32918;SDS011;19280;42.646;21.150;2023-01-25T07:26:44;19.20;;;9.18;;
32918;SDS011;19280;42.646;21.150;2023-01-25T07:29:12;17.67;;;9.73;;
32918;SDS011;19280;42.646;21.150;2023-01-25T07:31:38;16.92;;;9.65;;
32918;SDS011;19280;42.646;21.150;2023-01-25T07:34:07;20.52;;;9.68;;
32918;SDS011;19280;42.646;21.150;2023-01-25T07:36:33;22.27;;;10.75;;
32918;SDS011;19280;42.646;21.150;2023-01-25T07:38:59;24.05;;;12.32;;
32918;SDS011;19280;42.646;21.150;2023-01-25T07:41:26;24.15;;;13.65;;
32918;SDS011;19280;42.646;21.150;2023-01-25T07:43:52;23.17;;;12.68;;
32918;SDS011;19280;42.646;21.150;2023-01-25T07:46:19;25.85;;;14.57;;
32918;SDS011;19280;42.646;21.150;2023-01-25T07:48:46;28.95;;;15.23;;
32918;SDS011;19280;42.646;21.150;2023-01-25T07:51:12;29.17;;;15.80;;
32918;SDS011;19280;42.646;21.150;2023-01-25T07:56:18;29.25;;;16.17;;
32918;SDS011;19280;42.646;21.150;2023-01-25T07:58:45;22.98;;;11.85;;
32918;SDS011;19280;42.646;21.150;2023-01-25T08:01:12;25.00;;;12.88;;
32918;SDS011;19280;42.646;21.150;2023-01-25T08:03:38;24.70;;;11.38;;
32918;SDS011;19280;42.646;21.150;2023-01-25T08:06:05;21.33;;;12.82;;
32918;SDS011;19280;42.646;21.150;2023-01-25T08:08:32;22.80;;;12.88;;
32918;SDS011;19280;42.646;21.150;2023-01-25T08:10:59;18.30;;;11.23;;
32918;SDS011;19280;42.646;21.150;2023-01-25T08:13:25;19.85;;;11.52;;
32918;SDS011;19280;42.646;21.150;2023-01-25T08:15:52;18.52;;;10.98;;
32918;SDS011;19280;42.646;21.150;2023-01-25T08:18:18;21.75;;;10.95;;
32918;SDS011;19280;42.646;21.150;2023-01-25T08:20:44;21.27;;;11.90;;
32918;SDS011;19280;42.646;21.150;2023-01-25T08:23:10;24.33;;;13.85;;
32918;SDS011;19280;42.646;21.150;2023-01-25T08:25:36;28.58;;;12.80;;
32918;SDS011;19280;42.646;21.150;2023-01-25T08:28:03;15.25;;;8.98;;
32918;SDS011;19280;42.646;21.150;2023-01-25T08:30:29;21.48;;;10.40;;
32918;SDS011;19280;42.646;21.150;2023-01-25T08:32:56;21.75;;;11.07;;
32918;SDS011;19280;42.646;21.150;2023-01-25T08:35:22;21.92;;;11.35;;
32918;SDS011;19280;42.646;21.150;2023-01-25T08:37:48;21.83;;;12.13;;
32918;SDS011;19280;42.646;21.150;2023-01-25T08:40:14;30.23;;;13.80;;
32918;SDS011;19280;42.646;21.150;2023-01-25T08:42:40;28.27;;;12.93;;
32918;SDS011;19280;42.646;21.150;2023-01-25T08:45:09;32.53;;;14.27;;
32918;SDS011;19280;42.646;21.150;2023-01-25T08:47:35;25.17;;;13.60;;
32918;SDS011;19280;42.646;21.150;2023-01-25T08:50:01;22.27;;;13.32;;
32918;SDS011;19280;42.646;21.150;2023-01-25T08:52:27;23.83;;;14.23;;
32918;SDS011;19280;42.646;21.150;2023-01-25T08:54:53;26.98;;;13.82;;
32918;SDS011;19280;42.646;21.150;2023-01-25T08:57:19;24.35;;;13.10;;
32918;SDS011;19280;42.646;21.150;2023-01-25T08:59:45;23.17;;;11.70;;
32918;SDS011;19280;42.646;21.150;2023-01-25T09:02:12;28.13;;;12.40;;
32918;SDS011;19280;42.646;21.150;2023-01-25T09:04:38;23.42;;;12.63;;
32918;SDS011;19280;42.646;21.150;2023-01-25T09:07:04;23.33;;;13.65;;
32918;SDS011;19280;42.646;21.150;2023-01-25T09:09:31;28.95;;;13.80;;
32918;SDS011;19280;42.646;21.150;2023-01-25T09:11:57;33.75;;;13.88;;
32918;SDS011;19280;42.646;21.150;2023-01-25T09:14:23;26.65;;;12.63;;
32918;SDS011;19280;42.646;21.150;2023-01-25T09:16:49;21.85;;;12.05;;
32918;SDS011;19280;42.646;21.150;2023-01-25T09:19:15;36.80;;;14.43;;
32918;SDS011;19280;42.646;21.150;2023-01-25T09:21:41;32.97;;;16.00;;
32918;SDS011;19280;42.646;21.150;2023-01-25T09:24:07;40.33;;;16.95;;
32918;SDS011;19280;42.646;21.150;2023-01-25T09:26:35;33.53;;;14.30;;
32918;SDS011;19280;42.646;21.150;2023-01-25T09:29:01;27.92;;;14.32;;
32918;SDS011;19280;42.646;21.150;2023-01-25T09:31:27;26.60;;;13.18;;
32918;SDS011;19280;42.646;21.150;2023-01-25T09:33:54;30.52;;;13.77;;
32918;SDS011;19280;42.646;21.150;2023-01-25T09:36:21;36.80;;;17.98;;
32918;SDS011;19280;42.646;21.150;2023-01-25T09:38:47;31.23;;;14.02;;
32918;SDS011;19280;42.646;21.150;2023-01-25T09:41:20;22.35;;;12.35;;
32918;SDS011;19280;42.646;21.150;2023-01-25T09:54:06;29.52;;;14.18;;
32918;SDS011;19280;42.646;21.150;2023-01-25T09:56:34;37.03;;;13.88;;
32918;SDS011;19280;42.646;21.150;2023-01-25T09:59:02;15.38;;;9.57;;
32918;SDS011;19280;42.646;21.150;2023-01-25T10:04:03;21.63;;;12.20;;
32918;SDS011;19280;42.646;21.150;2023-01-25T10:06:35;27.65;;;14.80;;
32918;SDS011;19280;42.646;21.150;2023-01-25T10:09:06;27.90;;;13.27;;
32918;SDS011;19280;42.646;21.150;2023-01-25T10:11:37;25.38;;;14.00;;
32918;SDS011;19280;42.646;21.150;2023-01-25T10:14:06;29.23;;;14.40;;
32918;SDS011;19280;42.646;21.150;2023-01-25T10:16:40;26.38;;;13.65;;
32918;SDS011;19280;42.646;21.150;2023-01-25T10:21:56;28.88;;;16.15;;
32918;SDS011;19280;42.646;21.150;2023-01-25T10:29:48;58.33;;;20.30;;
32918;SDS011;19280;42.646;21.150;2023-01-25T10:32:17;33.85;;;16.90;;
32918;SDS011;19280;42.646;21.150;2023-01-25T10:34:46;37.53;;;19.40;;
32918;SDS011;19280;42.646;21.150;2023-01-25T10:37:15;34.70;;;16.98;;
32918;SDS011;19280;42.646;21.150;2023-01-25T10:39:55;31.60;;;16.23;;
32918;SDS011;19280;42.646;21.150;2023-01-25T10:42:23;41.53;;;18.70;;
32918;SDS011;19280;42.646;21.150;2023-01-25T10:44:50;27.05;;;14.45;;
32918;SDS011;19280;42.646;21.150;2023-01-25T10:47:20;28.30;;;14.30;;
32918;SDS011;19280;42.646;21.150;2023-01-25T10:49:50;31.40;;;13.55;;
32918;SDS011;19280;42.646;21.150;2023-01-25T10:52:17;29.67;;;12.60;;
32918;SDS011;19280;42.646;21.150;2023-01-25T10:54:44;30.58;;;12.80;;
32918;SDS011;19280;42.646;21.150;2023-01-25T10:57:14;24.92;;;13.55;;
32918;SDS011;19280;42.646;21.150;2023-01-25T10:59:45;31.70;;;14.68;;
32918;SDS011;19280;42.646;21.150;2023-01-25T11:07:47;31.90;;;15.32;;
32918;SDS011;19280;42.646;21.150;2023-01-25T11:18:32;23.35;;;12.57;;
32918;SDS011;19280;42.646;21.150;2023-01-25T11:23:28;25.35;;;13.43;;
32918;SDS011;19280;42.646;21.150;2023-01-25T11:26:09;36.38;;;15.00;;
32918;SDS011;19280;42.646;21.150;2023-01-25T11:28:35;30.48;;;14.30;;
32918;SDS011;19280;42.646;21.150;2023-01-25T11:31:01;18.52;;;10.60;;
32918;SDS011;19280;42.646;21.150;2023-01-25T11:33:27;22.55;;;11.93;;
32918;SDS011;19280;42.646;21.150;2023-01-25T11:38:32;17.27;;;9.70;;
32918;SDS011;19280;42.646;21.150;2023-01-25T11:46:24;20.85;;;12.40;;
32918;SDS011;19280;42.646;21.150;2023-01-25T11:51:43;22.98;;;11.43;;
32918;SDS011;19280;42.646;21.150;2023-01-25T12:12:44;19.15;;;11.55;;
32918;SDS011;19280;42.646;21.150;2023-01-25T12:15:19;22.30;;;12.23;;
32918;SDS011;19280;42.646;21.150;2023-01-25T12:28:39;24.30;;;11.93;;
32918;SDS011;19280;42.646;21.150;2023-01-25T12:31:04;18.25;;;9.70;;
32918;SDS011;19280;42.646;21.150;2023-01-25T12:33:35;15.63;;;8.68;;
32918;SDS011;19280;42.646;21.150;2023-01-25T12:36:12;22.50;;;11.93;;
32918;SDS011;19280;42.646;21.150;2023-01-25T12:38:41;22.67;;;10.93;;
32918;SDS011;19280;42.646;21.150;2023-01-25T12:44:12;21.92;;;12.70;;
32918;SDS011;19280;42.646;21.150;2023-01-25T12:46:41;24.38;;;12.90;;
32918;SDS011;19280;42.646;21.150;2023-01-25T12:49:14;23.90;;;12.75;;
32918;SDS011;19280;42.646;21.150;2023-01-25T12:51:42;18.38;;;11.48;;
32918;SDS011;19280;42.646;21.150;2023-01-25T12:54:15;26.13;;;13.70;;
32918;SDS011;19280;42.646;21.150;2023-01-25T12:56:57;23.67;;;13.82;;
32918;SDS011;19280;42.646;21.150;2023-01-25T13:01:58;25.92;;;14.95;;
32918;SDS011;19280;42.646;21.150;2023-01-25T13:06:59;31.83;;;13.30;;
32918;SDS011;19280;42.646;21.150;2023-01-25T13:12:10;23.10;;;13.98;;
32918;SDS011;19280;42.646;21.150;2023-01-25T13:14:37;32.17;;;15.00;;
32918;SDS011;19280;42.646;21.150;2023-01-25T13:19:45;35.28;;;16.17;;
32918;SDS011;19280;42.646;21.150;2023-01-25T13:22:12;24.83;;;13.55;;
32918;SDS011;19280;42.646;21.150;2023-01-25T13:27:26;30.65;;;14.13;;
32918;SDS011;19280;42.646;21.150;2023-01-25T13:37:24;24.55;;;13.77;;
32918;SDS011;19280;42.646;21.150;2023-01-25T13:44:43;27.30;;;14.52;;
32918;SDS011;19280;42.646;21.150;2023-01-25T13:47:10;30.92;;;15.38;;
32918;SDS011;19280;42.646;21.150;2023-01-25T13:49:41;31.48;;;16.80;;
32918;SDS011;19280;42.646;21.150;2023-01-25T13:52:13;27.85;;;14.35;;
32918;SDS011;19280;42.646;21.150;2023-01-25T13:54:46;25.50;;;13.82;;
32918;SDS011;19280;42.646;21.150;2023-01-25T13:57:20;25.95;;;14.55;;
32918;SDS011;19280;42.646;21.150;2023-01-25T13:59:47;27.13;;;13.65;;
32918;SDS011;19280;42.646;21.150;2023-01-25T14:02:22;30.52;;;13.02;;
32918;SDS011;19280;42.646;21.150;2023-01-25T14:04:49;34.00;;;18.17;;
32918;SDS011;19280;42.646;21.150;2023-01-25T14:07:20;21.30;;;12.35;;
32918;SDS011;19280;42.646;21.150;2023-01-25T14:09:47;27.90;;;12.93;;
32918;SDS011;19280;42.646;21.150;2023-01-25T14:12:21;87.18;;;41.38;;
32918;SDS011;19280;42.646;21.150;2023-01-25T14:14:50;38.13;;;18.25;;
32918;SDS011;19280;42.646;21.150;2023-01-25T14:17:22;33.13;;;17.95;;
32918;SDS011;19280;42.646;21.150;2023-01-25T14:19:49;32.50;;;17.38;;
32918;SDS011;19280;42.646;21.150;2023-01-25T14:22:25;35.03;;;17.25;;
32918;SDS011;19280;42.646;21.150;2023-01-25T14:25:11;26.80;;;13.75;;
32918;SDS011;19280;42.646;21.150;2023-01-25T14:27:44;22.80;;;14.05;;
32918;SDS011;19280;42.646;21.150;2023-01-25T14:32:44;31.27;;;17.20;;
32918;SDS011;19280;42.646;21.150;2023-01-25T14:35:33;30.95;;;15.93;;
32918;SDS011;19280;42.646;21.150;2023-01-25T14:38:07;32.17;;;15.30;;
32918;SDS011;19280;42.646;21.150;2023-01-25T14:40:42;30.98;;;15.65;;
32918;SDS011;19280;42.646;21.150;2023-01-25T14:43:08;30.08;;;15.40;;
32918;SDS011;19280;42.646;21.150;2023-01-25T14:45:35;27.10;;;15.65;;
32918;SDS011;19280;42.646;21.150;2023-01-25T14:48:01;27.10;;;14.43;;
32918;SDS011;19280;42.646;21.150;2023-01-25T14:50:31;30.80;;;16.17;;
32918;SDS011;19280;42.646;21.150;2023-01-25T14:53:18;30.45;;;15.35;;
32918;SDS011;19280;42.646;21.150;2023-01-25T14:55:44;34.65;;;16.95;;
32918;SDS011;19280;42.646;21.150;2023-01-25T14:58:18;35.72;;;16.95;;
32918;SDS011;19280;42.646;21.150;2023-01-25T15:00:52;32.92;;;17.60;;
32918;SDS011;19280;42.646;21.150;2023-01-25T15:03:18;94.90;;;67.13;;
32918;SDS011;19280;42.646;21.150;2023-01-25T15:05:46;30.27;;;16.95;;
32918;SDS011;19280;42.646;21.150;2023-01-25T15:10:53;33.80;;;19.27;;
32918;SDS011;19280;42.646;21.150;2023-01-25T15:13:27;38.63;;;19.30;;
32918;SDS011;19280;42.646;21.150;2023-01-25T15:21:07;40.30;;;21.58;;
32918;SDS011;19280;42.646;21.150;2023-01-25T15:23:33;38.22;;;19.38;;
32918;SDS011;19280;42.646;21.150;2023-01-25T15:25:59;46.63;;;24.63;;
32918;SDS011;19280;42.646;21.150;2023-01-25T15:28:30;49.10;;;25.08;;
32918;SDS011;19280;42.646;21.150;2023-01-25T15:31:02;30.30;;;16.30;;
32918;SDS011;19280;42.646;21.150;2023-01-25T15:33:29;24.20;;;12.45;;
32918;SDS011;19280;42.646;21.150;2023-01-25T15:35:56;32.60;;;17.67;;
32918;SDS011;19280;42.646;21.150;2023-01-25T15:38:23;38.03;;;20.05;;
32918;SDS011;19280;42.646;21.150;2023-01-25T15:40:49;45.58;;;21.48;;
32918;SDS011;19280;42.646;21.150;2023-01-25T15:43:16;36.95;;;19.83;;
32918;SDS011;19280;42.646;21.150;2023-01-25T15:45:43;40.70;;;19.48;;
32918;SDS011;19280;42.646;21.150;2023-01-25T15:48:22;35.63;;;19.73;;
32918;SDS011;19280;42.646;21.150;2023-01-25T15:50:49;32.65;;;14.82;;
32918;SDS011;19280;42.646;21.150;2023-01-25T15:53:16;25.60;;;15.13;;
32918;SDS011;19280;42.646;21.150;2023-01-25T15:55:43;50.42;;;31.75;;
32918;SDS011;19280;42.646;21.150;2023-01-25T15:58:15;32.00;;;17.25;;
32918;SDS011;19280;42.646;21.150;2023-01-25T16:00:43;31.75;;;17.02;;
32918;SDS011;19280;42.646;21.150;2023-01-25T16:03:09;35.63;;;18.85;;
32918;SDS011;19280;42.646;21.150;2023-01-25T16:05:35;33.22;;;17.00;;
32918;SDS011;19280;42.646;21.150;2023-01-25T16:08:01;29.45;;;16.33;;
32918;SDS011;19280;42.646;21.150;2023-01-25T16:10:27;44.30;;;22.45;;
32918;SDS011;19280;42.646;21.150;2023-01-25T16:12:53;55.03;;;32.35;;
32918;SDS011;19280;42.646;21.150;2023-01-25T16:15:21;42.65;;;22.50;;
32918;SDS011;19280;42.646;21.150;2023-01-25T16:17:47;124.30;;;77.47;;
32918;SDS011;19280;42.646;21.150;2023-01-25T16:20:18;45.03;;;24.50;;
32918;SDS011;19280;42.646;21.150;2023-01-25T16:22:45;50.22;;;27.65;;
32918;SDS011;19280;42.646;21.150;2023-01-25T16:25:11;35.25;;;18.08;;
32918;SDS011;19280;42.646;21.150;2023-01-25T16:27:38;38.88;;;20.48;;
32918;SDS011;19280;42.646;21.150;2023-01-25T16:30:05;45.33;;;26.60;;
32918;SDS011;19280;42.646;21.150;2023-01-25T16:32:31;30.77;;;17.67;;
32918;SDS011;19280;42.646;21.150;2023-01-25T16:34:57;39.83;;;22.10;;